AirNav   Everest Fuels
 
 1240 users online  

NH69 Windsock Village Airport
West Ossipee, New Hampshire, USA

GOING TO WEST OSSIPEE?


FAA INFORMATION EFFECTIVE 16 JULY 2020

Location

FAA Identifier: NH69
Lat/Long: 43-49-34.5200N 071-11-05.3800W
43-49.575333N 071-11.089667W
43.8262556,-71.1848278
(estimated)
Elevation: 460 ft. / 140 m (estimated)
Variation: 17W (1990)
From city: 1 mile E of WEST OSSIPEE, NH
Time zone: UTC -4 (UTC -5 during Standard Time)
Zip code: 03814

Airport Operations

Airport use: Private use. Permission required prior to landing
Activation date: 05/1992
Control tower: no
ARTCC: BOSTON CENTER
FSS: BANGOR FLIGHT SERVICE STATION
Attendance: IREG IREG
Wind indicator: yes
Segmented circle: no
Lights: ACTVT LIRL RY 15/33 - 122.7.

Airport Communications

UNICOM: 123.05
WX ASOS at IZG (14 nm NE): 135.775 (207-935-2882)
WX AWOS-3PT at LCI (18 nm SW): 133.525 (603-524-5134)

Nearby radio navigation aids

VOR radial/distance  VOR name  Freq  Var
ENEr331/34.5KENNEBUNK VOR/DME117.1017W

 
NDB name  Hdg/Dist  Freq  Var  ID
MAHN163/38.738617WGMA --. -- .-
ROLLINS353/39.526016WESG . ... --.

Airport Services

Runway Information

Runway 15/33

Dimensions: 4000 x 225 ft. / 1219 x 69 m
Surface: turf
Runway edge lights: low intensity
RUNWAY 15  RUNWAY 33
Traffic pattern: leftleft

Airport Ownership and Management from official FAA records

Ownership: Privately-owned
Owner: WINDSOCK VILLAGE AV CORP
BOX 512
WEST OSSIPEE, NH 03890
Phone 207-370-5168
Manager: WINDSOCK VILLAGE AV CORP
BOX 512
WEST OSSIPEE, NH 03890
Phone 207-370-5168

Airport Operational Statistics

Aircraft based on the field: 25
Single engine airplanes: 22
Gliders airplanes: 2
Ultralights: 1
    

Additional Remarks

FOR CD CTC BOSTON ARTCC AT 603-879-6859.

Instrument Procedures

There are no published instrument procedures at NH69.

Some nearby airports with instrument procedures:

KIZG - Eastern Slopes Regional Airport (14 nm NE)
KLCI - Laconia Municipal Airport (18 nm SW)
KSFM - Sanford Seacoast Regional Airport (33 nm SE)
KDAW - Skyhaven Airport (34 nm S)
KHIE - Mount Washington Regional Airport (36 nm NW)
 
Loc | Ops | Rwys | IFR | FBO | Links
Com | Nav | Svcs | Stats | Notes

Auburn-Lewiston Municipal Airport
 
Area around NH69 (Windsock Village Airport)
 
Road maps at: MapQuest Bing Google
 
Aerial photo
WARNING: Photo may not be current or correct
Aerial photo of NH69 (Windsock Village Airport)
Do you have a better or more recent aerial photo of Windsock Village Airport that you would like to share? If so, please send us your photo.

 
Sectional chart

 
Airport distance calculator
Flying to Windsock Village Airport? Find the distance to fly.

From to NH69

Sunrise and sunset
Times for 03-Aug-2020
 Local
(UTC-4)
 Zulu
(UTC)
Morning civil twilight05:0509:05
Sunrise05:3809:38
Sunset20:0400:04
Evening civil twilight20:3600:36

Current date and time
Zulu (UTC)  03-Aug-2020 13:32:54
Local (UTC-4)  03-Aug-2020 09:32:54
 
METAR
KCWN 
11nm N 
031313Z AUTO 16004KT 4SM BR BKN002 13/12 A3024 RMK AO2 SLP079 PWINO $
KIZG 
14nm NE 
031254Z AUTO VRB06KT 10SM CLR 26/19 A2984 RMK AO2 SLP104 T02610194
KLCI 
19nm SW 
031256Z AUTO 23018G23KT 10SM CLR 26/18 A2988 RMK AO2 SLP112 T02610183
TAF
KHIE 
36nm NW 
031120Z 0312/0412 25005KT P6SM SCT040 FM031400 27010G20KT P6SM SCT050 BKN250 FM032300 VRB03KT P6SM BKN150
KPWM 
40nm E 
031120Z 0312/0412 22008KT P6SM BKN200 FM031400 27010G20KT P6SM SCT050 BKN200 FM040000 VRB04KT P6SM BKN200
KCON 
40nm S 
031120Z 0312/0412 23007KT P6SM BKN250 FM031400 27010G20KT P6SM SCT050 BKN250 FM040000 VRB03KT P6SM BKN200
NOTAMs
Click for the latest NOTAMs
NOTAMs are issued by the DoD/FAA and will open in a separate window not controlled by AirNav.

 

 
 

Would you like to see your business listed on this page?

 If your business provides an interesting product or service to pilots, flight crews, aircraft, or users of the Windsock Village Airport, you should consider listing it here.  To start the listing process, click on the button below
 
Add a business
 

Other Pages about Windsock Village Airport

Update a link
 
Copyright © AirNav, LLC. All rights reserved. Privacy Policy  Contact